Historyczne dane pomiarowe

Dodano dane terminowe – wersja testowa.

Dane z okresu 1951-2019

Wersja bazy: 1.34 [2019-03-16, lista zmian], aktualizacja planowana na 2019-04-15

Dane meteo z obszaru Polski uzyskane na podstawie danych udostępnionych przez Instytut Meteorologii i Gospodarki Wodnej – Państwowy Instytut Badawczy.

 

Wybierz Datę:    

       

TemperaturaWilgotnośćWiatrCiśnienieOpadyŚniegCzas trwania zjawisk
 Stacja t tx tn tng RH VA  wxwx mslp ppp RRR   cm mm wxwxwxwxwxwxwx
1987-08-14 14.6 20.8 7.6 5.4 85.3- 6.3 2.3---- 3.4------------
1987-08-13 12.4 17.5 8.3 6.0 96.5- 6.7 2.0---- 0.0------------
1987-08-12 11.2 14.1 8.9 7.1 89.8- 7.3 7.7---- 2.9------------
1987-08-11 12.1 16.5 11.2 10.4 91.5- 7.0 4.3---- 3.3------------
1987-08-10 13.7 16.5 11.0 8.0 92.0- 7.3 3.0---- 4.6------------
1987-08-09 15.3 21.2 8.3 6.3 77.8- 4.3 0.7---- 4.3------------
1987-08-08 13.6 20.0 8.2 5.2 73.3- 2.7 1.7---- 0.0------------
1987-08-07 12.4 17.9 10.0 8.5 78.3- 4.0 3.7---- 0.0------------
1987-08-06 11.6 17.3 6.1 3.8 81.5- 4.3 2.3---- 1.0------------
1987-08-05 12.9 17.5 7.3 4.9 77.8- 2.7 3.7---- 0.0------------
1987-08-04 12.5 18.6 6.6 3.7 85.0- 6.3 4.0---- 1.3------------
1987-08-03 13.0 17.0 9.3 7.2 78.8- 5.0 3.7---- 1.1------------
1987-08-02 13.8 18.0 11.8 11.1 82.5- 2.3 2.0---- 4.3------------
1987-08-01 14.9 20.9 9.0 7.2 86.8- 4.7 3.0---- 6.5------------
1987-07-31 14.1 17.5 10.8 9.6 98.5- 8.0 1.0---- 2.6------------
1987-07-30 15.6 20.9 9.6 6.7 76.3- 4.7 0.7---- 0.0------------
1987-07-29 13.5 18.0 10.8 9.6 87.8- 5.0 1.0---- 0.0------------
1987-07-28 13.9 18.5 9.8 7.6 83.5- 6.3 4.0---- 0.0------------
1987-07-27 10.9 16.2 7.8 5.7 81.5- 6.0 4.0---- 7.4------------
1987-07-26 13.7 19.3 11.6 7.6 87.8- 7.7 2.3---- 4.0------------
1987-07-25 18.0 22.0 12.3 9.6 80.8- 4.0 2.0---- 0.0------------
1987-07-24 18.6 25.5 12.8 11.1 80.0- 4.0 1.0---- 0.0------------
1987-07-23 21.0 26.5 16.9 14.7 86.0- 0.7 1.3---- 0.0------------
1987-07-22 20.2 25.0 14.8 10.4 88.5- 2.7 1.0---- 0.0------------
1987-07-21 18.5 23.4 14.9 12.1 84.3- 5.3 1.0---- 0.0------------
1987-07-20 17.9 25.4 15.4 12.2 84.5- 6.7 1.0---- 0.0------------
1987-07-19 18.3 23.4 12.3 9.6 75.8- 2.3 4.3---- 0.0------------
1987-07-18 19.3 24.5 14.3 11.6 80.0- 0.7 4.3---- 0.0------------
1987-07-17 18.6 24.6 14.0 8.8 74.8- 4.7 5.0---- 6.8------------
1987-07-16 16.2 22.4 7.8 4.3 78.3- 3.7 2.3---- 0.0------------
1987-07-15 15.4 21.0 7.8 7.3 73.3- 1.3 1.3---- 0.0------------
1987-07-14 14.2 18.0 9.8 6.9 81.8- 6.0 2.7---- 0.0------------
1987-07-13 15.5 19.5 12.0 9.4 81.8- 5.3 3.7---- 0.0------------
1987-07-12 15.7 18.5 13.4 11.6 94.0- 7.3 2.0---- 17.5------------
1987-07-11 12.7 16.0 8.8 9.7 86.0- 7.7 3.0---- 2.6------------
1987-07-10 13.9 18.5 10.8 8.0 74.8- 4.0 5.0---- 0.0------------
1987-07-09 17.3 22.7 15.1 13.2 90.8- 8.0 2.0---- 1.9------------
1987-07-08 21.2 28.6 11.8 6.9 64.0- 0.3 2.3---- 0.1------------
1987-07-07 19.1 26.5 9.4 5.3 68.0- 0.0 1.3---- 0.0------------
1987-07-06 17.8 23.5 7.0 4.5 66.8- 1.7 1.0---- 0.0------------
1987-07-05 14.2 20.9 9.7 7.2 81.5- 4.0 1.7---- 0.8------------
1987-07-04 15.8 20.4 10.3 5.5 69.8- 4.7 1.7---- 0.0------------
1987-07-03 16.3 21.5 9.6 5.6 68.0- 0.7 2.3---- 0.0------------
1987-07-02 19.1 26.8 15.4 13.5 70.8- 4.3 2.7---- 0.0------------
1987-07-01 24.6 30.1 17.5 16.1 76.5- 2.0 2.0---- 0.0------------
1987-06-30 22.2 27.0 17.9 16.0 78.0- 3.7 0.7---- 0.0------------
1987-06-29 16.1 22.5 5.9 5.2 73.8- 3.7 2.0---- 0.0------------
1987-06-28 15.4 19.9 10.3 8.0 88.8- 5.3 2.7---- 4.0------------
1987-06-27 18.2 20.9 13.8 12.0 76.8- 6.0 2.0---- 0.5------------
1987-06-26 15.0 20.5 8.0 5.0 75.0- 4.7 2.0---- 0.0------------
1987-06-25 11.8 17.0 9.5 6.6 91.0- 7.3 1.7---- 1.2------------
1987-06-24 16.4 19.9 12.3 8.6 73.3- 4.0 1.7---- 2.6------------
1987-06-23 16.9 23.2 12.3 10.5 74.8- 4.0 1.0---- 0.0------------
1987-06-22 18.5 24.0 10.3 8.0 66.8- 1.3 1.0---- 0.0------------
1987-06-21 17.5 23.5 10.3 8.4 68.8- 1.0 1.0---- 0.0------------
1987-06-20 14.8 20.9 6.4 6.0 69.8- 0.7 1.7---- 0.0------------
1987-06-19 12.7 16.5 6.1 4.3 75.8- 1.7 2.3---- 0.0------------
1987-06-18 11.2 17.0 5.4 5.0 76.5- 2.3 3.7---- 0.0------------
1987-06-17 12.3 15.0 10.3 8.5 79.5- 7.3 3.7---- 0.0------------
1987-06-16 15.0 23.4 11.0 10.0 90.5- 6.3 8.0---- 8.6------------
692.1 ms

 

Źródłem pochodzenia danych jest Instytut Meteorologii i Gospodarki Wodnej – Państwowy Instytut Badawczy. Dane Instytutu Meteorologii i Gospodarki Wodnej – Państwowego Instytutu Badawczego zostały przetworzone.

Dane źródłowe można odnaleźć na stronie https://dane.imgw.pl